createdAt,value
2018-05-08T00:00:32.536Z,934.18
2018-05-08T00:01:32.535Z,934.18
2018-05-08T00:02:32.536Z,934.12
2018-05-08T00:03:32.538Z,934.14
2018-05-08T00:04:32.538Z,934.09
2018-05-08T00:05:32.540Z,934.05
2018-05-08T00:06:32.540Z,934.05
2018-05-08T00:07:32.541Z,934.05
2018-05-08T00:08:32.541Z,934.03
2018-05-08T00:09:32.542Z,934.00
2018-05-08T00:10:32.541Z,934.01
2018-05-08T00:11:32.542Z,933.99
2018-05-08T00:12:32.543Z,933.96
2018-05-08T00:13:32.544Z,933.98
2018-05-08T00:14:32.545Z,933.96
2018-05-08T00:15:32.545Z,933.98
2018-05-08T00:16:32.548Z,933.96
2018-05-08T00:17:32.546Z,933.97
2018-05-08T00:18:32.547Z,933.97
2018-05-08T00:19:32.548Z,933.95
2018-05-08T00:20:32.549Z,933.95
2018-05-08T00:21:32.549Z,933.93
2018-05-08T00:22:32.549Z,933.91
2018-05-08T00:23:32.550Z,933.92
2018-05-08T00:24:32.551Z,933.92
2018-05-08T00:26:32.555Z,933.92
2018-05-08T00:27:32.553Z,933.88
2018-05-08T00:28:32.556Z,933.87
2018-05-08T00:29:32.554Z,933.86
2018-05-08T00:30:32.554Z,933.83
2018-05-08T00:31:32.554Z,933.84
2018-05-08T00:32:32.556Z,933.82
2018-05-08T00:33:32.553Z,933.83
2018-05-08T00:34:32.556Z,933.78
2018-05-08T00:35:32.556Z,933.77
2018-05-08T00:36:32.556Z,933.80
2018-05-08T00:37:32.557Z,933.79
2018-05-08T00:38:32.556Z,933.75
2018-05-08T00:39:32.561Z,933.76
2018-05-08T00:40:32.557Z,933.76
2018-05-08T00:41:32.559Z,933.73
2018-05-08T00:42:32.559Z,933.73
2018-05-08T00:43:32.559Z,933.74
2018-05-08T00:44:32.560Z,933.73
2018-05-08T00:45:32.560Z,933.74
2018-05-08T00:46:32.562Z,933.71
2018-05-08T00:47:32.559Z,933.69
2018-05-08T00:48:32.568Z,933.64
2018-05-08T00:49:32.562Z,933.65
2018-05-08T00:50:32.562Z,933.66
2018-05-08T00:51:32.562Z,933.62
2018-05-08T00:52:32.562Z,933.66
2018-05-08T00:53:32.560Z,933.58
2018-05-08T00:54:32.562Z,933.64
2018-05-08T00:55:32.562Z,933.59
2018-05-08T00:56:32.564Z,933.58
2018-05-08T00:57:32.565Z,933.59
2018-05-08T00:58:32.563Z,933.55
2018-05-08T00:59:32.564Z,933.52
2018-05-08T01:00:32.565Z,933.52
2018-05-08T01:01:32.565Z,933.52
2018-05-08T01:02:32.566Z,933.52
2018-05-08T01:03:32.565Z,933.52
2018-05-08T01:04:32.566Z,933.52
2018-05-08T01:05:32.565Z,933.53
2018-05-08T01:06:32.866Z,933.58
2018-05-08T01:07:32.566Z,933.52
2018-05-08T01:08:32.569Z,933.52
2018-05-08T01:09:32.567Z,933.57
2018-05-08T01:10:32.567Z,933.61
2018-05-08T01:11:32.602Z,933.59
2018-05-08T01:12:32.569Z,933.59
2018-05-08T01:13:32.568Z,933.54
2018-05-08T01:14:32.570Z,933.55
2018-05-08T01:15:32.570Z,933.55
2018-05-08T01:16:32.571Z,933.56
2018-05-08T01:17:32.570Z,933.52
2018-05-08T01:18:32.570Z,933.53
2018-05-08T01:19:32.571Z,933.50
2018-05-08T01:20:32.571Z,933.52
2018-05-08T01:21:32.574Z,933.50
2018-05-08T01:22:32.571Z,933.46
2018-05-08T01:23:32.570Z,933.49
2018-05-08T01:24:32.571Z,933.54
2018-05-08T01:25:32.570Z,933.53
2018-05-08T01:26:32.571Z,933.49
2018-05-08T01:27:32.573Z,933.53
2018-05-08T01:28:32.571Z,933.48
2018-05-08T01:29:32.572Z,933.48
2018-05-08T01:30:32.572Z,933.48
2018-05-08T01:31:32.578Z,933.49
2018-05-08T01:32:32.572Z,933.48
2018-05-08T01:33:32.571Z,933.46
2018-05-08T01:34:32.572Z,933.46
2018-05-08T01:35:32.573Z,933.46
2018-05-08T01:36:32.573Z,933.43
2018-05-08T01:37:32.571Z,933.42
2018-05-08T01:38:32.571Z,933.41
2018-05-08T01:39:32.571Z,933.37
2018-05-08T01:40:32.571Z,933.38
2018-05-08T01:41:32.572Z,933.38
2018-05-08T01:42:32.572Z,933.36
2018-05-08T01:43:32.570Z,933.33
2018-05-08T01:44:32.571Z,933.36
2018-05-08T01:45:32.572Z,933.35
2018-05-08T01:46:32.572Z,933.35
2018-05-08T01:47:32.571Z,933.33
2018-05-08T01:48:32.572Z,933.34
2018-05-08T01:49:32.571Z,933.33
2018-05-08T01:50:32.646Z,933.36
2018-05-08T01:51:32.576Z,933.36
2018-05-08T01:52:32.572Z,933.35
2018-05-08T01:53:32.572Z,933.32
2018-05-08T01:54:32.571Z,933.33
2018-05-08T01:55:32.572Z,933.29
2018-05-08T01:56:32.574Z,933.27
2018-05-08T01:57:32.571Z,933.24
2018-05-08T01:58:32.570Z,933.24
2018-05-08T01:59:32.571Z,933.28
2018-05-08T02:00:32.570Z,933.27
2018-05-08T02:01:32.629Z,933.25
2018-05-08T02:02:32.571Z,933.26
2018-05-08T02:03:32.570Z,933.24
2018-05-08T02:04:32.570Z,933.23
2018-05-08T02:05:32.571Z,933.22
2018-05-08T02:06:32.570Z,933.22
2018-05-08T02:07:32.570Z,933.24
2018-05-08T02:08:32.576Z,933.21
2018-05-08T02:09:32.569Z,933.22
2018-05-08T02:10:32.571Z,933.26
2018-05-08T02:11:32.570Z,933.24
2018-05-08T02:12:32.569Z,933.20
2018-05-08T02:13:32.569Z,933.21
2018-05-08T02:14:32.570Z,933.22
2018-05-08T02:15:32.569Z,933.19
2018-05-08T02:16:32.569Z,933.24
2018-05-08T02:17:32.569Z,933.24
2018-05-08T02:18:32.569Z,933.23
2018-05-08T02:19:32.570Z,933.22
2018-05-08T02:20:32.569Z,933.22
2018-05-08T02:21:32.567Z,933.21
2018-05-08T02:22:32.567Z,933.20
2018-05-08T02:23:32.580Z,933.21
2018-05-08T02:24:32.568Z,933.19
2018-05-08T02:25:32.567Z,933.16
2018-05-08T02:26:32.568Z,933.18
2018-05-08T02:27:32.567Z,933.14
2018-05-08T02:28:32.567Z,933.13
2018-05-08T02:29:32.566Z,933.11
2018-05-08T02:30:32.565Z,933.10
2018-05-08T02:31:32.567Z,933.12
2018-05-08T02:32:32.564Z,933.15
2018-05-08T02:33:32.570Z,933.09
2018-05-08T02:34:32.568Z,933.10
2018-05-08T02:35:32.565Z,933.09
2018-05-08T02:36:32.565Z,933.16
2018-05-08T02:37:32.571Z,933.10
2018-05-08T02:38:32.576Z,933.06
2018-05-08T02:39:32.564Z,933.10
2018-05-08T02:40:32.568Z,933.08
2018-05-08T02:41:32.563Z,933.11
2018-05-08T02:42:32.562Z,933.10
2018-05-08T02:43:32.562Z,933.11
2018-05-08T02:44:32.562Z,933.09
2018-05-08T02:45:32.561Z,933.09
2018-05-08T02:46:32.561Z,933.11
2018-05-08T02:47:32.561Z,933.08
2018-05-08T02:48:32.567Z,933.07
2018-05-08T02:49:32.557Z,933.07
2018-05-08T02:50:32.558Z,933.05
2018-05-08T02:51:32.563Z,933.06
2018-05-08T02:52:32.577Z,933.01
2018-05-08T02:53:32.557Z,933.02
2018-05-08T02:54:32.555Z,933.03
2018-05-08T02:55:32.560Z,933.01
2018-05-08T02:56:32.555Z,933.01
2018-05-08T02:57:32.555Z,933.02
2018-05-08T02:58:32.554Z,933.00
2018-05-08T02:59:32.555Z,933.00
2018-05-08T03:00:32.555Z,933.04
2018-05-08T03:01:32.553Z,933.02
2018-05-08T03:02:32.553Z,933.06
2018-05-08T03:03:32.553Z,933.06
2018-05-08T03:04:32.553Z,933.09
2018-05-08T03:05:32.551Z,933.11
2018-05-08T03:06:32.553Z,933.12
2018-05-08T03:07:32.550Z,933.12
2018-05-08T03:08:32.550Z,933.15
2018-05-08T03:09:32.549Z,933.13
2018-05-08T03:10:32.549Z,933.17
2018-05-08T03:11:32.548Z,933.16
2018-05-08T03:12:32.549Z,933.14
2018-05-08T03:13:32.546Z,933.13
2018-05-08T03:14:32.545Z,933.13
2018-05-08T03:15:32.545Z,933.11
2018-05-08T03:16:32.546Z,933.10
2018-05-08T03:17:32.543Z,933.12
2018-05-08T03:18:32.544Z,933.11
2018-05-08T03:19:32.543Z,933.12
2018-05-08T03:20:32.543Z,933.08
2018-05-08T03:21:32.542Z,933.10
2018-05-08T03:22:32.541Z,933.12
2018-05-08T03:23:32.540Z,933.11
2018-05-08T03:24:32.541Z,933.04
2018-05-08T03:25:32.540Z,933.11
2018-05-08T03:26:32.538Z,933.12
2018-05-08T03:27:32.538Z,933.09
2018-05-08T03:28:32.540Z,933.02
2018-05-08T03:29:32.536Z,933.02
2018-05-08T03:30:32.536Z,933.03
2018-05-08T03:31:32.536Z,933.08
2018-05-08T03:32:32.536Z,933.06
2018-05-08T03:33:32.534Z,933.08
2018-05-08T03:34:32.535Z,933.07
2018-05-08T03:35:32.532Z,933.06
2018-05-08T03:36:32.532Z,933.10
2018-05-08T03:37:32.531Z,933.08
2018-05-08T03:38:32.531Z,933.07
2018-05-08T03:39:32.530Z,933.09
2018-05-08T03:40:32.529Z,933.05
2018-05-08T03:41:32.536Z,933.03
2018-05-08T03:42:32.527Z,933.05
2018-05-08T03:43:32.526Z,933.06
2018-05-08T03:44:32.526Z,933.10
2018-05-08T03:45:32.525Z,933.07
2018-05-08T03:46:32.526Z,933.08
2018-05-08T03:47:32.524Z,933.06
2018-05-08T03:48:32.528Z,933.02
2018-05-08T03:49:32.523Z,933.06
2018-05-08T03:50:32.521Z,933.03
2018-05-08T03:51:32.520Z,933.01
2018-05-08T03:52:32.524Z,933.03
2018-05-08T03:53:32.519Z,933.03
2018-05-08T03:54:32.518Z,932.98
2018-05-08T03:55:32.518Z,932.99
2018-05-08T03:56:32.518Z,933.01
2018-05-08T03:57:32.517Z,933.02
2018-05-08T03:58:32.516Z,933.02
2018-05-08T03:59:32.514Z,933.02
2018-05-08T04:00:32.513Z,933.02
2018-05-08T04:01:32.512Z,933.00
2018-05-08T04:02:32.512Z,932.99
2018-05-08T04:03:32.511Z,932.96
2018-05-08T04:04:32.517Z,933.00
2018-05-08T04:05:32.510Z,932.98
2018-05-08T04:06:32.508Z,933.00
2018-05-08T04:07:32.507Z,933.00
2018-05-08T04:08:32.508Z,932.96
2018-05-08T04:09:32.506Z,932.98
2018-05-08T04:10:32.505Z,932.99
2018-05-08T04:11:32.506Z,932.99
2018-05-08T04:12:32.503Z,932.97
2018-05-08T04:13:32.502Z,932.94
2018-05-08T04:14:32.500Z,932.97
2018-05-08T04:15:32.571Z,932.95
2018-05-08T04:16:32.500Z,932.95
2018-05-08T04:17:32.499Z,932.92
2018-05-08T04:18:32.499Z,932.92
2018-05-08T04:19:32.497Z,932.95
2018-05-08T04:20:32.497Z,932.92
2018-05-08T04:21:32.499Z,932.95
2018-05-08T04:22:32.497Z,932.91
2018-05-08T04:23:32.495Z,932.90
2018-05-08T04:24:32.494Z,932.92
2018-05-08T04:25:32.492Z,932.96
2018-05-08T04:26:32.492Z,932.94
2018-05-08T04:27:32.491Z,932.95
2018-05-08T04:28:32.489Z,932.98
2018-05-08T04:29:32.488Z,933.04
2018-05-08T04:30:32.487Z,932.99
2018-05-08T04:31:32.488Z,933.02
2018-05-08T04:32:32.485Z,933.03
2018-05-08T04:33:32.484Z,933.00
2018-05-08T04:34:32.484Z,932.99
2018-05-08T04:35:32.483Z,933.02
2018-05-08T04:36:32.500Z,932.99
2018-05-08T04:37:32.481Z,932.95
2018-05-08T04:38:32.480Z,932.95
2018-05-08T04:39:32.484Z,932.91
2018-05-08T04:40:32.479Z,932.92
2018-05-08T04:41:32.478Z,932.90
2018-05-08T04:42:32.476Z,932.90
2018-05-08T04:43:32.477Z,932.92
2018-05-08T04:44:32.475Z,932.88
2018-05-08T04:45:32.475Z,932.82
2018-05-08T04:46:32.473Z,932.85
2018-05-08T04:47:32.476Z,932.84
2018-05-08T04:48:32.472Z,932.86
2018-05-08T04:49:32.472Z,932.86
2018-05-08T04:50:32.471Z,932.86
2018-05-08T04:51:32.471Z,932.88
2018-05-08T04:52:32.471Z,932.88
2018-05-08T04:53:32.469Z,932.86
2018-05-08T04:54:32.478Z,932.88
2018-05-08T04:55:32.467Z,932.89
2018-05-08T04:56:32.467Z,932.88
2018-05-08T04:57:32.465Z,932.90
2018-05-08T04:58:32.464Z,932.91
2018-05-08T04:59:32.465Z,932.94
2018-05-08T05:00:32.464Z,932.94
2018-05-08T05:01:32.462Z,932.93
2018-05-08T05:02:32.463Z,932.96
2018-05-08T05:03:32.462Z,933.00
2018-05-08T05:04:32.461Z,933.02
2018-05-08T05:05:32.461Z,933.01
2018-05-08T05:06:32.459Z,933.00
2018-05-08T05:07:32.459Z,932.99
2018-05-08T05:08:32.460Z,932.98
2018-05-08T05:09:32.459Z,932.93
2018-05-08T05:10:32.457Z,932.96
2018-05-08T05:11:32.457Z,932.94
2018-05-08T05:12:32.457Z,932.95
2018-05-08T05:13:32.455Z,932.93
2018-05-08T05:14:32.456Z,932.97
2018-05-08T05:15:32.455Z,932.94
2018-05-08T05:16:32.455Z,932.98
2018-05-08T05:17:32.453Z,932.94
2018-05-08T05:18:32.455Z,932.89
2018-05-08T05:19:32.454Z,932.92
2018-05-08T05:20:32.454Z,932.95
2018-05-08T05:21:32.453Z,932.90
2018-05-08T05:22:32.454Z,932.91
2018-05-08T05:23:32.453Z,932.91
2018-05-08T05:24:32.467Z,932.92
2018-05-08T05:25:32.459Z,932.92
2018-05-08T05:26:32.452Z,932.92
2018-05-08T05:27:32.453Z,932.88
2018-05-08T05:28:32.453Z,932.90
2018-05-08T05:29:32.459Z,932.88
2018-05-08T05:30:32.451Z,932.85
2018-05-08T05:31:32.466Z,932.83
2018-05-08T05:32:32.452Z,932.78
2018-05-08T05:33:32.451Z,932.75
2018-05-08T05:34:32.451Z,932.75
2018-05-08T05:35:32.452Z,932.74
2018-05-08T05:36:32.452Z,932.72
2018-05-08T05:37:32.454Z,932.72
2018-05-08T05:38:32.451Z,932.74
2018-05-08T05:39:32.451Z,932.78
2018-05-08T05:40:32.452Z,932.79
2018-05-08T05:41:32.451Z,932.80
2018-05-08T05:42:32.455Z,932.83
2018-05-08T05:43:32.452Z,932.81
2018-05-08T05:44:32.452Z,932.80
2018-05-08T05:45:32.454Z,932.76
2018-05-08T05:46:32.451Z,932.77
2018-05-08T05:47:32.453Z,932.74
2018-05-08T05:48:32.453Z,932.76
2018-05-08T05:49:32.452Z,932.74
2018-05-08T05:50:32.453Z,932.75
2018-05-08T05:51:32.460Z,932.76
2018-05-08T05:52:32.452Z,932.75
2018-05-08T05:53:32.453Z,932.76
2018-05-08T05:54:32.451Z,932.81
2018-05-08T05:55:32.454Z,932.78
2018-05-08T05:56:32.455Z,932.82
2018-05-08T05:57:32.453Z,932.80
2018-05-08T05:58:32.506Z,932.84
2018-05-08T05:59:32.482Z,932.80
2018-05-08T06:00:32.502Z,932.81
2018-05-08T06:01:32.542Z,932.82
2018-05-08T06:02:32.455Z,932.80
2018-05-08T06:03:32.455Z,932.78
2018-05-08T06:04:32.461Z,932.76
2018-05-08T06:05:32.454Z,932.74
2018-05-08T06:06:32.550Z,932.73
2018-05-08T06:07:32.455Z,932.72
2018-05-08T06:08:32.456Z,932.71
2018-05-08T06:09:32.454Z,932.71
2018-05-08T06:10:32.456Z,932.72
2018-05-08T06:11:32.477Z,932.70
2018-05-08T06:12:32.458Z,932.68
2018-05-08T06:13:32.456Z,932.72
2018-05-08T06:14:32.457Z,932.70
2018-05-08T06:15:32.457Z,932.71
2018-05-08T06:16:32.458Z,932.72
2018-05-08T06:17:32.462Z,932.69
2018-05-08T06:18:32.458Z,932.74
2018-05-08T06:19:32.460Z,932.73
2018-05-08T06:20:32.459Z,932.70
2018-05-08T06:21:32.460Z,932.72
2018-05-08T06:22:32.461Z,932.75
2018-05-08T06:23:32.462Z,932.72
2018-05-08T06:24:32.462Z,932.71
2018-05-08T06:25:32.462Z,932.77
2018-05-08T06:26:32.472Z,932.75
2018-05-08T06:27:32.468Z,932.72
2018-05-08T06:28:32.762Z,932.69
2018-05-08T06:29:32.466Z,932.72
2018-05-08T06:30:32.840Z,932.71
2018-05-08T06:31:32.468Z,932.75
2018-05-08T06:32:32.469Z,932.76
2018-05-08T06:33:32.469Z,932.73
2018-05-08T06:34:32.471Z,932.69
2018-05-08T06:35:32.470Z,932.69
2018-05-08T06:36:32.473Z,932.64
2018-05-08T06:37:32.472Z,932.65
2018-05-08T06:38:32.475Z,932.63
2018-05-08T06:39:32.550Z,932.64
2018-05-08T06:40:32.476Z,932.61
2018-05-08T06:41:32.480Z,932.63
2018-05-08T06:42:32.477Z,932.66
2018-05-08T06:43:32.478Z,932.66
2018-05-08T06:44:32.481Z,932.67
2018-05-08T06:45:32.605Z,932.70
2018-05-08T06:46:32.498Z,932.72
2018-05-08T06:47:32.486Z,932.69
2018-05-08T06:48:32.485Z,932.68
2018-05-08T06:49:32.754Z,932.73
2018-05-08T06:50:32.602Z,932.73
2018-05-08T06:51:32.488Z,932.70
2018-05-08T06:52:32.491Z,932.72
2018-05-08T06:53:32.491Z,932.73
2018-05-08T06:54:32.493Z,932.73
2018-05-08T06:55:32.495Z,932.74
2018-05-08T06:56:32.495Z,932.75
2018-05-08T06:57:32.500Z,932.75
2018-05-08T06:58:32.499Z,932.79
2018-05-08T06:59:32.502Z,932.86
2018-05-08T07:00:32.506Z,932.98
2018-05-08T07:01:32.505Z,933.05
2018-05-08T07:02:32.507Z,933.06
2018-05-08T07:03:32.513Z,933.04
2018-05-08T07:04:32.517Z,933.00
2018-05-08T07:05:32.552Z,933.09
2018-05-08T07:06:32.617Z,933.15
2018-05-08T07:07:32.534Z,933.11
2018-05-08T07:08:32.540Z,933.06
2018-05-08T07:09:32.549Z,933.08
2018-05-08T07:10:32.606Z,933.05
2018-05-08T07:11:32.564Z,932.94
2018-05-08T07:12:32.569Z,933.03
2018-05-08T07:13:32.578Z,933.03
2018-05-08T07:14:32.585Z,933.00
2018-05-08T07:15:32.593Z,932.98
2018-05-08T07:16:32.602Z,932.95
2018-05-08T07:17:32.607Z,932.92
2018-05-08T07:18:32.617Z,932.90
2018-05-08T07:19:32.621Z,932.86
2018-05-08T07:20:32.629Z,932.85
2018-05-08T07:21:32.634Z,932.84
2018-05-08T07:22:32.641Z,932.91
2018-05-08T07:23:32.647Z,932.93
2018-05-08T07:24:32.653Z,932.92
2018-05-08T07:25:32.660Z,932.94
2018-05-08T07:26:32.665Z,932.97
2018-05-08T07:27:32.857Z,932.95
2018-05-08T07:28:32.749Z,932.89
2018-05-08T07:29:32.684Z,932.95
2018-05-08T07:30:32.690Z,932.94
2018-05-08T07:31:32.699Z,932.88
2018-05-08T07:32:32.703Z,932.95
2018-05-08T07:33:32.708Z,932.96
2018-05-08T07:34:32.714Z,932.91
2018-05-08T07:35:32.882Z,932.89
2018-05-08T07:36:32.734Z,932.90
2018-05-08T07:37:32.733Z,932.93
2018-05-08T07:38:32.743Z,932.89
2018-05-08T07:39:32.747Z,932.84
2018-05-08T07:40:32.754Z,932.85
2018-05-08T07:41:32.914Z,932.82
2018-05-08T07:42:32.764Z,932.77
2018-05-08T07:43:32.769Z,932.78
2018-05-08T07:44:32.776Z,932.76
2018-05-08T07:45:32.928Z,932.78
2018-05-08T07:46:32.788Z,932.81
2018-05-08T07:47:32.793Z,932.82
2018-05-08T07:48:32.993Z,932.89
2018-05-08T07:49:33.263Z,932.93
2018-05-08T07:50:33.053Z,932.95
2018-05-08T07:51:33.071Z,933.01
2018-05-08T07:52:32.824Z,933.03
2018-05-08T07:53:32.831Z,933.04
2018-05-08T07:54:32.920Z,933.03
2018-05-08T07:55:32.846Z,932.99
2018-05-08T07:56:32.853Z,933.00
2018-05-08T07:57:32.949Z,933.00
2018-05-08T07:58:32.870Z,933.05
2018-05-08T07:59:33.294Z,933.09
2018-05-08T08:00:32.888Z,933.08
2018-05-08T08:01:32.894Z,933.14
2018-05-08T08:02:32.904Z,933.06
2018-05-08T08:03:32.916Z,933.11
2018-05-08T08:04:32.998Z,933.19
2018-05-08T08:05:32.936Z,933.19
2018-05-08T08:06:32.948Z,933.22
2018-05-08T08:07:32.964Z,933.18
2018-05-08T08:08:32.972Z,933.25
2018-05-08T08:09:32.985Z,933.31
2018-05-08T08:10:32.996Z,933.31
2018-05-08T08:11:33.019Z,933.29
2018-05-08T08:12:33.021Z,933.32
2018-05-08T08:13:33.032Z,933.33
2018-05-08T08:14:33.046Z,933.33
2018-05-08T08:15:33.359Z,933.25
2018-05-08T08:16:33.151Z,933.27
2018-05-08T08:17:33.091Z,933.22
2018-05-08T08:18:33.115Z,933.17
2018-05-08T08:19:33.476Z,933.11
2018-05-08T08:20:33.122Z,933.13
2018-05-08T08:21:33.133Z,933.12
2018-05-08T08:22:33.143Z,933.15
2018-05-08T08:23:33.166Z,933.13
2018-05-08T08:24:33.172Z,933.15
2018-05-08T08:25:33.178Z,933.13
2018-05-08T08:26:33.190Z,933.06
2018-05-08T08:27:33.203Z,933.08
2018-05-08T08:28:33.214Z,933.11
2018-05-08T08:29:33.225Z,933.14
2018-05-08T08:30:33.238Z,933.12
2018-05-08T08:31:33.251Z,933.10
2018-05-08T08:32:33.264Z,933.10
2018-05-08T08:33:33.564Z,933.12
2018-05-08T08:34:33.290Z,933.10
2018-05-08T08:35:33.306Z,933.09
2018-05-08T08:36:33.318Z,933.09
2018-05-08T08:37:33.331Z,933.05
2018-05-08T08:38:33.346Z,933.05
2018-05-08T08:39:33.361Z,933.04
2018-05-08T08:40:33.375Z,933.04
2018-05-08T08:41:33.389Z,933.05
2018-05-08T08:42:33.405Z,933.04
2018-05-08T08:43:33.425Z,933.01
2018-05-08T08:44:33.435Z,933.00
2018-05-08T08:45:33.450Z,933.03
2018-05-08T08:46:33.521Z,933.05
2018-05-08T08:47:33.486Z,933.04
2018-05-08T08:48:33.496Z,933.07
2018-05-08T08:49:33.513Z,933.02
2018-05-08T08:50:33.528Z,933.04
2018-05-08T08:51:33.543Z,933.06
2018-05-08T08:52:33.559Z,933.00
2018-05-08T08:53:33.574Z,933.01
2018-05-08T08:54:33.590Z,933.01
2018-05-08T08:55:33.609Z,933.00
2018-05-08T08:56:33.624Z,933.03
2018-05-08T08:57:33.638Z,932.98
2018-05-08T08:58:33.654Z,932.99
2018-05-08T08:59:33.670Z,932.98
2018-05-08T09:00:33.685Z,932.99
2018-05-08T09:01:33.698Z,932.96
2018-05-08T09:02:33.715Z,932.92
2018-05-08T09:03:33.729Z,932.89
2018-05-08T09:04:33.746Z,932.88
2018-05-08T09:05:33.768Z,932.86
2018-05-08T09:06:33.775Z,932.82
2018-05-08T09:07:33.791Z,932.84
2018-05-08T09:08:33.807Z,932.83
2018-05-08T09:09:33.821Z,932.82
2018-05-08T09:10:33.836Z,932.75
2018-05-08T09:11:33.879Z,932.75
2018-05-08T09:12:33.866Z,932.76
2018-05-08T09:13:33.892Z,932.77
2018-05-08T09:14:33.896Z,932.78
2018-05-08T09:15:33.910Z,932.75
2018-05-08T09:16:33.926Z,932.78
2018-05-08T09:17:33.939Z,932.76
2018-05-08T09:18:33.955Z,932.79
2018-05-08T09:19:33.971Z,932.78
2018-05-08T09:20:34.255Z,932.72
2018-05-08T09:21:33.998Z,932.69
2018-05-08T09:22:34.462Z,932.75
2018-05-08T09:23:34.303Z,932.79
2018-05-08T09:24:34.550Z,932.76
2018-05-08T09:25:34.065Z,932.75
2018-05-08T09:26:34.071Z,932.76
2018-05-08T09:27:34.098Z,932.73
2018-05-08T09:28:34.101Z,932.70
2018-05-08T09:29:34.113Z,932.70
2018-05-08T09:30:34.309Z,932.71
2018-05-08T09:31:34.145Z,932.74
2018-05-08T09:32:34.159Z,932.71
2018-05-08T09:33:34.170Z,932.71
2018-05-08T09:34:34.183Z,932.73
2018-05-08T09:35:34.274Z,932.73
2018-05-08T09:36:34.214Z,932.70
2018-05-08T09:37:34.227Z,932.66
2018-05-08T09:38:34.240Z,932.65
2018-05-08T09:39:34.255Z,932.65
2018-05-08T09:40:34.517Z,932.71
2018-05-08T09:41:34.282Z,932.70
2018-05-08T09:42:34.296Z,932.67
2018-05-08T09:43:34.314Z,932.69
2018-05-08T09:44:34.324Z,932.65
2018-05-08T09:45:34.610Z,932.65
2018-05-08T09:46:34.855Z,932.66
2018-05-08T09:47:34.366Z,932.65
2018-05-08T09:48:34.380Z,932.60
2018-05-08T09:49:34.403Z,932.60
2018-05-08T09:50:34.406Z,932.62
2018-05-08T09:51:34.420Z,932.64
2018-05-08T09:52:34.435Z,932.66
2018-05-08T09:53:34.449Z,932.60
2018-05-08T09:54:34.492Z,932.67
2018-05-08T09:55:34.475Z,932.63
2018-05-08T09:56:34.490Z,932.59
2018-05-08T09:57:34.502Z,932.57
2018-05-08T09:58:34.831Z,932.54
2018-05-08T09:59:34.797Z,932.55
2018-05-08T10:00:34.811Z,932.47
2018-05-08T10:01:34.831Z,932.50
2018-05-08T10:02:34.570Z,932.53
2018-05-08T10:03:34.608Z,932.51
2018-05-08T10:04:34.597Z,932.52
2018-05-08T10:05:34.700Z,932.51
2018-05-08T10:06:34.723Z,932.45
2018-05-08T10:07:34.642Z,932.48
2018-05-08T10:08:34.654Z,932.48
2018-05-08T10:09:34.669Z,932.44
2018-05-08T10:10:34.680Z,932.43
2018-05-08T10:11:34.694Z,932.38
2018-05-08T10:12:34.708Z,932.36
2018-05-08T10:13:34.722Z,932.30
2018-05-08T10:14:34.738Z,932.29
2018-05-08T10:15:34.749Z,932.28
2018-05-08T10:16:34.768Z,932.29
2018-05-08T10:17:34.777Z,932.30
2018-05-08T10:18:34.790Z,932.25
2018-05-08T10:19:34.803Z,932.27
2018-05-08T10:20:34.873Z,932.24
2018-05-08T10:21:34.831Z,932.18
2018-05-08T10:22:34.845Z,932.20
2018-05-08T10:23:34.859Z,932.19
2018-05-08T10:24:34.872Z,932.17
2018-05-08T10:25:34.885Z,932.17
2018-05-08T10:26:34.899Z,932.15
2018-05-08T10:27:34.915Z,932.12
2018-05-08T10:28:34.927Z,932.10
2018-05-08T10:29:34.941Z,932.06
2018-05-08T10:30:34.955Z,932.03
2018-05-08T10:31:34.968Z,932.01
2018-05-08T10:32:34.981Z,931.98
2018-05-08T10:33:34.994Z,931.95
2018-05-08T10:34:35.008Z,931.91
2018-05-08T10:35:35.024Z,931.89
2018-05-08T10:36:35.035Z,931.91
2018-05-08T10:37:35.047Z,931.87
2018-05-08T10:38:35.060Z,931.87
2018-05-08T10:39:35.073Z,931.82
2018-05-08T10:40:35.157Z,931.85
2018-05-08T10:41:35.099Z,931.81
2018-05-08T10:42:35.111Z,931.78
2018-05-08T10:43:35.125Z,931.78
2018-05-08T10:44:35.137Z,931.77
2018-05-08T10:45:35.153Z,931.74
2018-05-08T10:46:35.162Z,931.77
2018-05-08T10:47:35.472Z,931.75
2018-05-08T10:48:35.482Z,931.74
2018-05-08T10:49:35.505Z,931.75
2018-05-08T10:50:35.481Z,931.74
2018-05-08T10:51:35.225Z,931.68
2018-05-08T10:52:35.240Z,931.68
2018-05-08T10:53:35.576Z,931.70
2018-05-08T10:54:35.495Z,931.74
2018-05-08T10:55:35.283Z,931.70
2018-05-08T10:56:35.288Z,931.73
2018-05-08T10:57:35.307Z,931.73
2018-05-08T10:58:35.355Z,931.70
2018-05-08T10:59:35.346Z,931.69
2018-05-08T11:00:35.339Z,931.68
2018-05-08T11:01:35.423Z,931.62
2018-05-08T11:02:35.376Z,931.65
2018-05-08T11:03:35.378Z,931.61
2018-05-08T11:04:35.449Z,931.61
2018-05-08T11:05:35.438Z,931.59
2018-05-08T11:06:35.414Z,931.56
2018-05-08T11:07:35.426Z,931.59
2018-05-08T11:08:35.439Z,931.55
2018-05-08T11:09:35.452Z,931.54
2018-05-08T11:10:35.468Z,931.55
2018-05-08T11:11:35.478Z,931.56
2018-05-08T11:12:35.496Z,931.55
2018-05-08T11:13:35.504Z,931.54
2018-05-08T11:14:35.516Z,931.54
2018-05-08T11:15:35.529Z,931.54
2018-05-08T11:16:35.553Z,931.50
2018-05-08T11:17:35.555Z,931.49
2018-05-08T11:18:35.566Z,931.49
2018-05-08T11:19:35.608Z,931.49
2018-05-08T11:20:35.590Z,931.50
2018-05-08T11:21:35.607Z,931.51
2018-05-08T11:22:36.240Z,931.48
2018-05-08T11:23:35.629Z,931.48
2018-05-08T11:24:35.642Z,931.46
2018-05-08T11:25:35.656Z,931.45
2018-05-08T11:26:35.713Z,931.45
2018-05-08T11:27:35.680Z,931.47
2018-05-08T11:28:35.694Z,931.44
2018-05-08T11:29:35.705Z,931.40
2018-05-08T11:30:35.720Z,931.37
2018-05-08T11:31:35.731Z,931.37
2018-05-08T11:32:35.744Z,931.34
2018-05-08T11:33:35.757Z,931.36
2018-05-08T11:34:35.771Z,931.38
2018-05-08T11:35:35.784Z,931.39
2018-05-08T11:36:35.797Z,931.37
2018-05-08T11:37:35.811Z,931.39
2018-05-08T11:38:35.823Z,931.37
2018-05-08T11:39:35.839Z,931.38
2018-05-08T11:40:35.847Z,931.37
2018-05-08T11:41:35.862Z,931.34
2018-05-08T11:42:35.874Z,931.33
2018-05-08T11:43:35.904Z,931.28
2018-05-08T11:44:35.930Z,931.25
2018-05-08T11:45:35.912Z,931.28
2018-05-08T11:46:35.924Z,931.25
2018-05-08T11:47:35.938Z,931.21
2018-05-08T11:48:35.954Z,931.28
2018-05-08T11:49:35.963Z,931.21
2018-05-08T11:50:35.977Z,931.23
2018-05-08T11:51:35.988Z,931.20
2018-05-08T11:52:35.997Z,931.22
2018-05-08T11:53:36.009Z,931.17
2018-05-08T11:54:36.025Z,931.13
2018-05-08T11:55:36.037Z,931.13
2018-05-08T11:56:36.046Z,931.13
2018-05-08T11:57:36.057Z,931.13
2018-05-08T11:58:36.069Z,931.09
2018-05-08T11:59:36.085Z,931.10
2018-05-08T12:00:36.095Z,931.07
2018-05-08T12:01:36.105Z,931.09
2018-05-08T12:02:36.181Z,931.04
2018-05-08T12:03:36.134Z,931.04
2018-05-08T12:04:36.142Z,931.04
2018-05-08T12:05:36.152Z,931.03
2018-05-08T12:06:36.165Z,930.97
2018-05-08T12:07:36.177Z,930.97
2018-05-08T12:08:36.190Z,930.93
2018-05-08T12:09:36.201Z,930.99
2018-05-08T12:10:36.213Z,930.97
2018-05-08T12:11:36.378Z,930.91
2018-05-08T12:12:36.240Z,930.91
2018-05-08T12:13:36.250Z,930.94
2018-05-08T12:14:36.292Z,930.93
2018-05-08T12:15:36.275Z,930.92
2018-05-08T12:16:36.287Z,930.89
2018-05-08T12:17:36.297Z,930.90
2018-05-08T12:18:36.311Z,930.89
2018-05-08T12:19:36.572Z,930.88
2018-05-08T12:20:36.335Z,930.84
2018-05-08T12:21:36.345Z,930.82
2018-05-08T12:22:36.357Z,930.76
2018-05-08T12:23:36.444Z,930.77
2018-05-08T12:24:36.382Z,930.71
2018-05-08T12:25:36.451Z,930.72
2018-05-08T12:26:36.404Z,930.70
2018-05-08T12:27:36.419Z,930.76
2018-05-08T12:28:36.428Z,930.70
2018-05-08T12:29:36.438Z,930.75